createdAt,value
2022-08-22T00:02:33.637Z,100.00
2022-08-22T00:02:55.558Z,100.00
2022-08-22T00:03:15.561Z,100.00
2022-08-22T00:05:48.515Z,100.00
2022-08-22T00:09:18.200Z,100.00
2022-08-22T00:12:50.634Z,100.00
2022-08-22T00:16:06.600Z,100.00
2022-08-22T00:19:28.813Z,100.00
2022-08-22T00:22:51.268Z,100.00
2022-08-22T00:26:16.351Z,100.00
2022-08-22T00:29:30.495Z,100.00
2022-08-22T00:33:02.521Z,100.00
2022-08-22T00:36:35.676Z,100.00
2022-08-22T00:40:03.718Z,100.00
2022-08-22T00:43:43.941Z,100.00
2022-08-22T00:46:59.832Z,100.00
2022-08-22T00:50:07.911Z,100.00
2022-08-22T00:53:39.003Z,100.00
2022-08-22T00:56:47.733Z,100.00
2022-08-22T01:00:05.765Z,100.00
2022-08-22T01:03:32.946Z,100.00
2022-08-22T01:06:44.648Z,100.00
2022-08-22T01:10:24.011Z,100.00
2022-08-22T01:13:38.650Z,100.00
2022-08-22T01:17:23.267Z,100.00
2022-08-22T01:20:41.689Z,100.00
2022-08-22T01:24:27.325Z,100.00
2022-08-22T01:27:48.788Z,100.00
2022-08-22T01:31:03.199Z,100.00
2022-08-22T01:34:54.307Z,100.00
2022-08-22T01:38:00.541Z,100.00
2022-08-22T01:41:12.934Z,100.00
2022-08-22T01:44:24.483Z,100.00
2022-08-22T01:47:50.137Z,100.00
2022-08-22T01:51:04.770Z,100.00
2022-08-22T01:54:27.534Z,100.00
2022-08-22T01:57:30.207Z,100.00
2022-08-22T02:01:01.887Z,100.00
2022-08-22T02:04:30.136Z,100.00
2022-08-22T02:08:02.952Z,100.00
2022-08-22T02:11:10.705Z,100.00
2022-08-22T02:14:33.548Z,100.00
2022-08-22T02:17:51.059Z,100.00
2022-08-22T02:21:11.609Z,100.00
2022-08-22T02:24:42.737Z,100.00
2022-08-22T02:28:10.909Z,100.00
2022-08-22T02:31:18.727Z,100.00
2022-08-22T02:34:36.854Z,100.00
2022-08-22T02:38:09.357Z,100.00
2022-08-22T02:41:46.854Z,100.00
2022-08-22T02:45:03.504Z,100.00
2022-08-22T02:48:12.144Z,100.00
2022-08-22T02:51:47.831Z,100.00
2022-08-22T02:55:05.883Z,100.00
2022-08-22T02:58:18.813Z,100.00
2022-08-22T03:01:30.419Z,100.00
2022-08-22T03:04:33.452Z,100.00
2022-08-22T03:07:46.431Z,100.00
2022-08-22T03:11:10.759Z,100.00
2022-08-22T03:14:32.476Z,100.00
2022-08-22T03:17:50.864Z,100.00
2022-08-22T03:21:09.446Z,100.00
2022-08-22T03:24:24.956Z,100.00
2022-08-22T03:27:46.208Z,100.00
2022-08-22T03:30:58.237Z,100.00
2022-08-22T03:34:27.179Z,100.00
2022-08-22T03:37:36.063Z,100.00
2022-08-22T03:41:06.132Z,100.00
2022-08-22T03:44:34.512Z,100.00
2022-08-22T03:48:07.726Z,100.00
2022-08-22T03:51:38.482Z,100.00
2022-08-22T03:55:12.625Z,100.00
2022-08-22T03:58:35.353Z,100.00
2022-08-22T04:01:56.705Z,100.00
2022-08-22T04:05:23.709Z,100.00
2022-08-22T04:08:43.773Z,100.00
2022-08-22T04:12:25.909Z,100.00
2022-08-22T04:15:40.456Z,100.00
2022-08-22T04:19:21.028Z,100.00
2022-08-22T04:22:42.231Z,100.00
2022-08-22T04:25:58.666Z,100.00
2022-08-22T04:29:08.328Z,100.00
2022-08-22T04:32:43.989Z,100.00
2022-08-22T04:35:59.902Z,100.00
2022-08-22T04:39:14.683Z,100.00
2022-08-22T04:42:47.966Z,100.00
2022-08-22T04:46:08.236Z,100.00
2022-08-22T04:49:38.473Z,100.00
2022-08-22T04:52:55.073Z,100.00
2022-08-22T04:56:15.250Z,100.00
2022-08-22T04:59:19.381Z,100.00
2022-08-22T05:02:27.693Z,100.00
2022-08-22T05:05:38.091Z,100.00
2022-08-22T05:08:43.272Z,100.00
2022-08-22T05:12:37.775Z,100.00
2022-08-22T05:15:46.005Z,100.00
2022-08-22T05:19:06.495Z,100.00
2022-08-22T05:22:18.820Z,100.00
2022-08-22T05:25:28.890Z,100.00
2022-08-22T05:28:39.153Z,100.00
2022-08-22T05:31:49.385Z,100.00
2022-08-22T05:34:58.341Z,100.00
2022-08-22T05:38:03.906Z,100.00
2022-08-22T05:41:37.508Z,100.00
2022-08-22T05:44:40.736Z,100.00
2022-08-22T05:47:48.536Z,99.98
2022-08-22T05:51:21.578Z,98.68
2022-08-22T05:54:33.875Z,99.17
2022-08-22T05:57:46.512Z,100.00
2022-08-22T06:00:57.896Z,95.66
2022-08-22T06:04:07.054Z,95.84
2022-08-22T06:07:43.567Z,94.91
2022-08-22T06:10:51.422Z,94.64
2022-08-22T06:14:31.581Z,94.05
2022-08-22T06:17:41.773Z,92.47
2022-08-22T06:20:52.570Z,93.83
2022-08-22T06:24:05.198Z,94.00
2022-08-22T06:27:13.088Z,92.69
2022-08-22T06:30:40.289Z,97.33
2022-08-22T06:34:18.335Z,91.71
2022-08-22T06:37:34.276Z,89.35
2022-08-22T06:40:57.236Z,90.64
2022-08-22T06:44:25.742Z,86.98
2022-08-22T06:47:57.122Z,92.61
2022-08-22T06:51:09.204Z,93.53
2022-08-22T06:54:22.230Z,88.02
2022-08-22T06:57:44.013Z,93.03
2022-08-22T07:00:58.817Z,89.81
2022-08-22T07:04:15.969Z,87.56
2022-08-22T07:07:25.467Z,88.89
2022-08-22T07:10:28.712Z,91.79
2022-08-22T07:13:33.799Z,91.66
2022-08-22T07:16:42.471Z,90.64
2022-08-22T07:19:55.535Z,88.94
2022-08-22T07:23:04.391Z,87.95
2022-08-22T07:26:20.776Z,87.44
2022-08-22T07:29:35.941Z,87.52
2022-08-22T07:33:18.995Z,88.12
2022-08-22T07:36:58.768Z,90.44
2022-08-22T07:40:25.002Z,87.90
2022-08-22T07:43:48.550Z,90.46
2022-08-22T07:47:17.978Z,91.48
2022-08-22T07:50:31.338Z,91.93
2022-08-22T07:53:48.636Z,93.38
2022-08-22T07:57:24.888Z,92.93
2022-08-22T08:00:29.770Z,86.46
2022-08-22T08:03:33.170Z,83.80
2022-08-22T08:06:38.384Z,81.51
2022-08-22T08:10:13.361Z,78.40
2022-08-22T08:13:53.591Z,80.09
2022-08-22T08:17:28.774Z,73.69
2022-08-22T08:21:03.650Z,77.72
2022-08-22T08:24:13.769Z,76.83
2022-08-22T08:27:58.329Z,75.30
2022-08-22T08:31:10.301Z,77.66
2022-08-22T08:34:21.243Z,79.44
2022-08-22T08:37:36.174Z,76.45
2022-08-22T08:40:48.837Z,76.95
2022-08-22T08:44:15.030Z,76.57
2022-08-22T08:47:40.279Z,74.04
2022-08-22T08:50:54.202Z,75.13
2022-08-22T08:54:21.911Z,75.01
2022-08-22T09:01:40.003Z,71.97
2022-08-22T09:04:49.066Z,71.45
2022-08-22T09:08:13.167Z,69.70
2022-08-22T09:11:37.412Z,67.33
2022-08-22T09:15:04.305Z,69.04
2022-08-22T09:19:02.017Z,70.87
2022-08-22T09:22:22.191Z,73.82
2022-08-22T09:29:01.756Z,69.56
2022-08-22T09:32:42.573Z,70.93
2022-08-22T09:35:59.183Z,70.94
2022-08-22T09:39:22.712Z,72.82
2022-08-22T09:40:16.149Z,70.65
2022-08-22T09:42:53.461Z,73.03
2022-08-22T09:46:13.281Z,75.74
2022-08-22T09:49:51.691Z,76.70
2022-08-22T09:57:54.101Z,77.66
2022-08-22T10:01:04.113Z,77.73
2022-08-22T10:04:07.237Z,75.36
2022-08-22T10:07:31.426Z,72.47
2022-08-22T10:11:06.681Z,73.68
2022-08-22T10:14:24.445Z,70.02
2022-08-22T10:17:41.017Z,71.54
2022-08-22T10:21:19.535Z,71.49
2022-08-22T10:24:52.859Z,71.33
2022-08-22T10:28:23.876Z,70.67
2022-08-22T10:31:59.091Z,70.66
2022-08-22T10:35:47.918Z,66.40
2022-08-22T10:38:55.540Z,64.53
2022-08-22T10:42:18.664Z,65.46
2022-08-22T10:45:39.006Z,64.16
2022-08-22T10:49:31.048Z,68.42
2022-08-22T10:52:46.438Z,64.99
2022-08-22T10:55:56.013Z,63.03
2022-08-22T10:59:24.203Z,57.80
2022-08-22T11:02:36.301Z,57.01
2022-08-22T11:05:50.057Z,61.96
2022-08-22T11:08:58.153Z,67.03
2022-08-22T11:12:13.638Z,62.05
2022-08-22T11:15:42.101Z,63.29
2022-08-22T11:18:51.443Z,63.08
2022-08-22T11:22:36.612Z,60.89
2022-08-22T11:26:07.444Z,60.85
2022-08-22T11:29:22.904Z,59.49
2022-08-22T11:32:59.539Z,58.65
2022-08-22T11:36:21.741Z,59.66
2022-08-22T11:39:41.010Z,58.98
2022-08-22T11:43:20.050Z,58.10
2022-08-22T11:46:40.113Z,56.61
2022-08-22T11:49:56.744Z,58.82
2022-08-22T11:53:18.341Z,59.31
2022-08-22T11:56:35.370Z,60.82
2022-08-22T11:59:42.999Z,58.78
2022-08-22T12:03:16.459Z,57.91
2022-08-22T12:06:29.257Z,54.65
2022-08-22T12:10:16.845Z,57.86
2022-08-22T12:13:46.038Z,53.29
2022-08-22T12:17:13.612Z,56.57
2022-08-22T12:20:35.217Z,57.35
2022-08-22T12:24:20.996Z,57.89
2022-08-22T12:27:28.427Z,56.74
2022-08-22T12:31:11.373Z,58.61
2022-08-22T12:34:39.755Z,58.76
2022-08-22T12:38:03.066Z,59.01
2022-08-22T12:41:38.471Z,60.05
2022-08-22T12:45:15.625Z,61.69
2022-08-22T12:48:30.478Z,62.03
2022-08-22T12:51:51.959Z,64.34
2022-08-22T12:55:14.710Z,65.38
2022-08-22T12:58:55.569Z,67.23
2022-08-22T13:02:16.807Z,70.53
2022-08-22T13:05:41.022Z,71.82
2022-08-22T13:08:49.095Z,72.89
2022-08-22T13:11:54.540Z,74.64
2022-08-22T13:15:29.263Z,73.35
2022-08-22T13:18:44.764Z,72.92
2022-08-22T13:22:04.931Z,73.60
2022-08-22T13:25:25.625Z,72.14
2022-08-22T13:28:31.823Z,72.26
2022-08-22T13:31:38.634Z,71.86
2022-08-22T13:34:58.348Z,70.03
2022-08-22T13:38:17.861Z,70.93
2022-08-22T13:41:34.434Z,70.25
2022-08-22T13:44:44.684Z,70.81
2022-08-22T13:47:52.420Z,70.52
2022-08-22T13:51:06.279Z,70.73
2022-08-22T13:54:22.728Z,70.63
2022-08-22T13:57:52.073Z,72.17
2022-08-22T14:01:17.875Z,71.43
2022-08-22T14:04:35.617Z,71.87
2022-08-22T14:08:06.260Z,71.88
2022-08-22T14:11:43.089Z,73.38
2022-08-22T14:14:54.475Z,72.84
2022-08-22T14:18:45.536Z,72.85
2022-08-22T14:22:01.877Z,73.37
2022-08-22T14:25:16.864Z,73.77
2022-08-22T14:28:33.555Z,73.62
2022-08-22T14:31:36.515Z,73.82
2022-08-22T14:34:45.379Z,74.30
2022-08-22T14:37:58.200Z,76.30
2022-08-22T14:41:06.997Z,74.57
2022-08-22T14:44:31.738Z,76.56
2022-08-22T14:52:29.920Z,79.71
2022-08-22T15:05:05.581Z,80.23
2022-08-22T15:08:12.888Z,77.61
2022-08-22T15:11:25.952Z,75.75
2022-08-22T15:14:35.223Z,75.89
2022-08-22T15:17:40.575Z,74.73
2022-08-22T15:21:06.749Z,74.74
2022-08-22T15:24:13.889Z,72.63
2022-08-22T15:27:20.318Z,72.44
2022-08-22T15:30:34.658Z,72.31
2022-08-22T15:33:43.247Z,73.47
2022-08-22T15:37:29.343Z,74.63
2022-08-22T15:40:45.619Z,74.57
2022-08-22T15:43:52.097Z,75.44
2022-08-22T15:47:23.959Z,74.80
2022-08-22T15:50:37.175Z,75.16
2022-08-22T15:53:43.375Z,75.41
2022-08-22T15:56:52.830Z,71.77
2022-08-22T16:00:12.305Z,73.89
2022-08-22T16:03:31.668Z,73.56
2022-08-22T16:07:01.404Z,74.14
2022-08-22T16:10:14.170Z,73.71
2022-08-22T16:23:07.717Z,76.71
2022-08-22T16:26:15.751Z,76.57
2022-08-22T16:30:05.398Z,77.24
2022-08-22T16:33:17.971Z,76.51
2022-08-22T16:36:42.292Z,77.63
2022-08-22T16:40:14.478Z,79.78
2022-08-22T16:43:19.999Z,78.61
2022-08-22T16:46:36.515Z,77.18
2022-08-22T16:56:23.287Z,78.85
2022-08-22T16:59:58.350Z,81.10
2022-08-22T17:03:40.798Z,81.03
2022-08-22T17:07:07.600Z,79.86
2022-08-22T17:11:25.074Z,80.42
2022-08-22T17:14:48.540Z,80.07
2022-08-22T17:18:17.403Z,82.47
2022-08-22T17:21:53.604Z,83.14
2022-08-22T17:25:23.913Z,83.97
2022-08-22T17:28:38.809Z,83.37
2022-08-22T17:32:09.667Z,83.11
2022-08-22T17:35:33.126Z,82.95
2022-08-22T17:38:55.087Z,80.83
2022-08-22T17:42:38.196Z,83.48
2022-08-22T17:45:47.203Z,83.67
2022-08-22T17:48:59.587Z,83.52
2022-08-22T17:52:28.238Z,83.62
2022-08-22T17:55:39.441Z,86.56
2022-08-22T17:58:55.792Z,86.57
2022-08-22T18:02:11.096Z,85.99
2022-08-22T18:05:20.072Z,86.61
2022-08-22T19:52:16.174Z,94.78
2022-08-22T19:55:36.824Z,100.00
2022-08-22T19:58:39.461Z,100.00
2022-08-22T20:02:05.956Z,100.00
2022-08-22T20:05:27.752Z,97.38
2022-08-22T20:08:43.245Z,100.00
2022-08-22T20:16:23.658Z,100.00
2022-08-22T20:23:25.124Z,100.00
2022-08-22T20:26:31.236Z,100.00
2022-08-22T20:29:37.273Z,99.66
2022-08-22T20:32:53.950Z,100.00
2022-08-22T20:36:02.244Z,100.00
2022-08-22T20:39:37.263Z,100.00
2022-08-22T20:42:44.322Z,100.00
2022-08-22T20:46:04.356Z,100.00
2022-08-22T20:49:24.051Z,100.00
2022-08-22T20:55:57.160Z,100.00
2022-08-22T20:59:52.134Z,100.00
2022-08-22T21:03:36.965Z,100.00
2022-08-22T21:07:30.780Z,100.00
2022-08-22T21:11:00.883Z,100.00
2022-08-22T21:14:33.146Z,100.00
2022-08-22T21:17:39.695Z,100.00
2022-08-22T21:20:44.668Z,100.00
2022-08-22T21:24:09.591Z,100.00
2022-08-22T21:27:14.429Z,100.00
2022-08-22T21:30:28.351Z,100.00
2022-08-22T21:33:31.275Z,100.00
2022-08-22T21:36:38.648Z,100.00
2022-08-22T21:39:50.223Z,100.00
2022-08-22T21:43:05.598Z,100.00
2022-08-22T21:46:08.730Z,100.00
2022-08-22T21:49:25.104Z,100.00
2022-08-22T21:52:31.155Z,100.00
2022-08-22T21:55:47.013Z,100.00
2022-08-22T21:58:49.976Z,100.00
2022-08-22T22:01:56.031Z,100.00
2022-08-22T22:05:01.295Z,100.00
2022-08-22T22:08:05.652Z,100.00
2022-08-22T22:11:15.447Z,100.00
2022-08-22T22:14:20.209Z,100.00
2022-08-22T22:17:43.732Z,100.00
2022-08-22T22:20:47.560Z,100.00
2022-08-22T22:23:50.734Z,100.00
2022-08-22T22:26:55.347Z,100.00
2022-08-22T22:29:58.607Z,100.00
2022-08-22T22:33:01.551Z,100.00
2022-08-22T22:36:20.976Z,100.00
2022-08-22T22:39:25.360Z,100.00
2022-08-22T22:42:28.497Z,100.00
2022-08-22T22:45:31.255Z,100.00
2022-08-22T22:48:34.989Z,100.00
2022-08-22T22:51:37.859Z,100.00
2022-08-22T22:54:40.932Z,100.00
2022-08-22T22:57:44.121Z,100.00
2022-08-22T23:00:49.210Z,100.00
2022-08-22T23:03:57.548Z,100.00
2022-08-22T23:07:03.610Z,100.00
2022-08-22T23:10:08.291Z,100.00
2022-08-22T23:13:11.479Z,100.00
2022-08-22T23:16:18.168Z,100.00
2022-08-22T23:19:41.494Z,100.00
2022-08-22T23:22:49.410Z,100.00
2022-08-22T23:25:55.161Z,100.00
2022-08-22T23:28:58.343Z,100.00
2022-08-22T23:32:03.402Z,100.00
2022-08-22T23:35:06.889Z,100.00
2022-08-22T23:38:09.870Z,100.00
2022-08-22T23:41:14.634Z,100.00
2022-08-22T23:44:20.401Z,100.00
2022-08-22T23:47:23.218Z,100.00
2022-08-22T23:50:26.215Z,100.00
2022-08-22T23:53:49.773Z,100.00
2022-08-22T23:56:59.691Z,100.00
